Weather at Portland International Airport

Public forecast

Using degrees Fahrenheit for public forecast. Weather courtesy of forecast.io.

Current aviation weather report (METAR) for Portland International Airport

Retrieved 2021/10/19 20:53 UTC (57 minutes ago):

KPDX 192053Z 34003KT 10SM BKN210 BKN260 14/07 A2979 RMK AO2 SLP088 T01440072 58026

Aviation forecast (TAF) for Portland International Airport

Retrieved 2021/10/19 18:33 UTC (3 hours ago):

TAF KPDX 191730Z 1918/2018 VRB04KT P6SM BKN200 FM192100 10010KT P6SM SCT140 OVC200 FM200600 10008KT P6SM BKN100 OVC140 FM200900 11011KT P6SM -RA BKN060 OVC080 FM201500 18014G22KT P6SM -RA SCT030 OVC045